sensor_id;sensor_type;location;lat;lon;timestamp;P1;durP1;ratioP1;P2;durP2;ratioP2
9948;SDS011;5013;51.840;8.276;2023-07-31T00:01:59;2.13;;;1.87;;
9948;SDS011;5013;51.840;8.276;2023-07-31T00:04:24;2.27;;;1.70;;
9948;SDS011;5013;51.840;8.276;2023-07-31T00:06:50;2.10;;;2.00;;
9948;SDS011;5013;51.840;8.276;2023-07-31T00:09:15;2.13;;;1.80;;
9948;SDS011;5013;51.840;8.276;2023-07-31T00:11:41;1.93;;;1.83;;
9948;SDS011;5013;51.840;8.276;2023-07-31T00:14:07;4.10;;;2.07;;
9948;SDS011;5013;51.840;8.276;2023-07-31T00:16:32;2.03;;;1.90;;
9948;SDS011;5013;51.840;8.276;2023-07-31T00:18:58;3.13;;;1.77;;
9948;SDS011;5013;51.840;8.276;2023-07-31T00:21:23;2.47;;;1.70;;
9948;SDS011;5013;51.840;8.276;2023-07-31T00:23:49;1.70;;;1.60;;
9948;SDS011;5013;51.840;8.276;2023-07-31T00:26:15;2.40;;;1.70;;
9948;SDS011;5013;51.840;8.276;2023-07-31T00:28:41;1.57;;;1.53;;
9948;SDS011;5013;51.840;8.276;2023-07-31T00:31:06;2.00;;;1.90;;
9948;SDS011;5013;51.840;8.276;2023-07-31T00:33:34;1.83;;;1.73;;
9948;SDS011;5013;51.840;8.276;2023-07-31T00:36:00;1.50;;;1.50;;
9948;SDS011;5013;51.840;8.276;2023-07-31T00:38:26;2.20;;;2.10;;
9948;SDS011;5013;51.840;8.276;2023-07-31T00:40:51;1.80;;;1.70;;
9948;SDS011;5013;51.840;8.276;2023-07-31T00:43:17;1.50;;;1.40;;
9948;SDS011;5013;51.840;8.276;2023-07-31T00:45:43;2.67;;;1.60;;
9948;SDS011;5013;51.840;8.276;2023-07-31T00:48:09;1.63;;;1.50;;
9948;SDS011;5013;51.840;8.276;2023-07-31T00:50:34;1.60;;;1.50;;
9948;SDS011;5013;51.840;8.276;2023-07-31T00:53:00;1.57;;;1.50;;
9948;SDS011;5013;51.840;8.276;2023-07-31T00:55:26;1.80;;;1.70;;
9948;SDS011;5013;51.840;8.276;2023-07-31T00:57:52;1.70;;;1.70;;
9948;SDS011;5013;51.840;8.276;2023-07-31T01:00:18;1.80;;;1.70;;
9948;SDS011;5013;51.840;8.276;2023-07-31T01:02:44;1.93;;;1.83;;
9948;SDS011;5013;51.840;8.276;2023-07-31T01:05:10;2.30;;;2.20;;
9948;SDS011;5013;51.840;8.276;2023-07-31T01:07:48;1.90;;;1.80;;
9948;SDS011;5013;51.840;8.276;2023-07-31T01:10:23;1.70;;;1.70;;
9948;SDS011;5013;51.840;8.276;2023-07-31T01:12:55;1.90;;;1.80;;
9948;SDS011;5013;51.840;8.276;2023-07-31T01:15:22;2.10;;;2.00;;
9948;SDS011;5013;51.840;8.276;2023-07-31T01:17:48;3.27;;;1.93;;
9948;SDS011;5013;51.840;8.276;2023-07-31T01:20:18;1.87;;;1.77;;
9948;SDS011;5013;51.840;8.276;2023-07-31T01:23:02;2.10;;;2.00;;
9948;SDS011;5013;51.840;8.276;2023-07-31T01:28:14;1.93;;;1.83;;
9948;SDS011;5013;51.840;8.276;2023-07-31T01:30:49;2.13;;;2.00;;
9948;SDS011;5013;51.840;8.276;2023-07-31T01:33:15;1.93;;;1.83;;
9948;SDS011;5013;51.840;8.276;2023-07-31T01:35:42;2.20;;;2.00;;
9948;SDS011;5013;51.840;8.276;2023-07-31T01:38:09;4.23;;;2.23;;
9948;SDS011;5013;51.840;8.276;2023-07-31T01:40:36;2.60;;;2.10;;
9948;SDS011;5013;51.840;8.276;2023-07-31T01:43:08;2.53;;;2.03;;
9948;SDS011;5013;51.840;8.276;2023-07-31T01:45:34;2.13;;;2.03;;
9948;SDS011;5013;51.840;8.276;2023-07-31T01:47:59;2.70;;;2.50;;
9948;SDS011;5013;51.840;8.276;2023-07-31T01:50:25;2.50;;;2.10;;
9948;SDS011;5013;51.840;8.276;2023-07-31T01:52:50;2.70;;;2.03;;
9948;SDS011;5013;51.840;8.276;2023-07-31T01:55:16;2.30;;;2.20;;
9948;SDS011;5013;51.840;8.276;2023-07-31T01:57:41;5.80;;;2.13;;
9948;SDS011;5013;51.840;8.276;2023-07-31T02:00:07;2.40;;;2.00;;
9948;SDS011;5013;51.840;8.276;2023-07-31T02:02:33;2.63;;;2.43;;
9948;SDS011;5013;51.840;8.276;2023-07-31T02:04:58;5.17;;;2.20;;
9948;SDS011;5013;51.840;8.276;2023-07-31T02:07:24;2.57;;;2.37;;
9948;SDS011;5013;51.840;8.276;2023-07-31T02:09:49;3.40;;;2.30;;
9948;SDS011;5013;51.840;8.276;2023-07-31T02:12:15;3.17;;;2.30;;
9948;SDS011;5013;51.840;8.276;2023-07-31T02:14:40;2.47;;;2.27;;
9948;SDS011;5013;51.840;8.276;2023-07-31T02:17:06;2.70;;;2.50;;
9948;SDS011;5013;51.840;8.276;2023-07-31T02:19:32;2.53;;;2.43;;
9948;SDS011;5013;51.840;8.276;2023-07-31T02:21:57;2.47;;;2.30;;
9948;SDS011;5013;51.840;8.276;2023-07-31T02:24:23;2.77;;;2.50;;
9948;SDS011;5013;51.840;8.276;2023-07-31T02:26:49;3.20;;;2.70;;
9948;SDS011;5013;51.840;8.276;2023-07-31T02:29:15;3.47;;;3.27;;
9948;SDS011;5013;51.840;8.276;2023-07-31T02:31:40;4.00;;;3.70;;
9948;SDS011;5013;51.840;8.276;2023-07-31T02:34:06;4.27;;;4.07;;
9948;SDS011;5013;51.840;8.276;2023-07-31T02:36:31;5.90;;;4.97;;
9948;SDS011;5013;51.840;8.276;2023-07-31T02:38:57;6.27;;;5.73;;
9948;SDS011;5013;51.840;8.276;2023-07-31T02:41:22;10.73;;;8.47;;
9948;SDS011;5013;51.840;8.276;2023-07-31T02:43:48;10.20;;;9.10;;
9948;SDS011;5013;51.840;8.276;2023-07-31T02:46:13;16.83;;;11.40;;
9948;SDS011;5013;51.840;8.276;2023-07-31T02:48:39;19.07;;;11.53;;
9948;SDS011;5013;51.840;8.276;2023-07-31T02:51:04;21.37;;;12.23;;
9948;SDS011;5013;51.840;8.276;2023-07-31T02:53:30;19.53;;;13.00;;
9948;SDS011;5013;51.840;8.276;2023-07-31T02:55:55;17.07;;;11.73;;
9948;SDS011;5013;51.840;8.276;2023-07-31T02:58:21;19.03;;;12.03;;
9948;SDS011;5013;51.840;8.276;2023-07-31T03:00:46;20.53;;;12.03;;
9948;SDS011;5013;51.840;8.276;2023-07-31T03:03:12;18.40;;;12.67;;
9948;SDS011;5013;51.840;8.276;2023-07-31T03:05:38;20.70;;;11.67;;
9948;SDS011;5013;51.840;8.276;2023-07-31T03:08:03;17.40;;;11.73;;
9948;SDS011;5013;51.840;8.276;2023-07-31T03:10:29;22.40;;;12.17;;
9948;SDS011;5013;51.840;8.276;2023-07-31T03:12:55;16.20;;;11.40;;
9948;SDS011;5013;51.840;8.276;2023-07-31T03:15:20;16.17;;;10.83;;
9948;SDS011;5013;51.840;8.276;2023-07-31T03:17:46;18.50;;;10.90;;
9948;SDS011;5013;51.840;8.276;2023-07-31T03:20:11;17.87;;;10.30;;
9948;SDS011;5013;51.840;8.276;2023-07-31T03:22:37;18.87;;;10.90;;
9948;SDS011;5013;51.840;8.276;2023-07-31T03:25:03;20.83;;;10.80;;
9948;SDS011;5013;51.840;8.276;2023-07-31T03:27:29;17.00;;;10.97;;
9948;SDS011;5013;51.840;8.276;2023-07-31T03:29:54;17.77;;;11.10;;
9948;SDS011;5013;51.840;8.276;2023-07-31T03:32:20;17.27;;;10.33;;
9948;SDS011;5013;51.840;8.276;2023-07-31T03:34:45;15.03;;;10.33;;
9948;SDS011;5013;51.840;8.276;2023-07-31T03:37:11;19.03;;;10.70;;
9948;SDS011;5013;51.840;8.276;2023-07-31T03:39:36;19.23;;;9.60;;
9948;SDS011;5013;51.840;8.276;2023-07-31T03:42:02;23.10;;;11.13;;
9948;SDS011;5013;51.840;8.276;2023-07-31T03:44:28;21.67;;;10.67;;
9948;SDS011;5013;51.840;8.276;2023-07-31T03:46:53;19.30;;;9.63;;
9948;SDS011;5013;51.840;8.276;2023-07-31T03:49:19;16.70;;;9.60;;
9948;SDS011;5013;51.840;8.276;2023-07-31T03:51:44;19.43;;;9.20;;
9948;SDS011;5013;51.840;8.276;2023-07-31T03:54:10;15.47;;;9.57;;
9948;SDS011;5013;51.840;8.276;2023-07-31T03:56:35;22.20;;;10.77;;
9948;SDS011;5013;51.840;8.276;2023-07-31T03:59:03;18.00;;;9.27;;
9948;SDS011;5013;51.840;8.276;2023-07-31T04:01:28;18.00;;;9.23;;
9948;SDS011;5013;51.840;8.276;2023-07-31T04:03:54;16.23;;;8.80;;
9948;SDS011;5013;51.840;8.276;2023-07-31T04:06:19;19.47;;;10.03;;
9948;SDS011;5013;51.840;8.276;2023-07-31T04:08:45;19.70;;;9.27;;
9948;SDS011;5013;51.840;8.276;2023-07-31T04:11:11;21.07;;;10.03;;
9948;SDS011;5013;51.840;8.276;2023-07-31T04:13:37;17.10;;;9.00;;
9948;SDS011;5013;51.840;8.276;2023-07-31T04:16:03;21.60;;;8.97;;
9948;SDS011;5013;51.840;8.276;2023-07-31T04:18:29;17.00;;;8.70;;
9948;SDS011;5013;51.840;8.276;2023-07-31T04:20:56;18.07;;;9.60;;
9948;SDS011;5013;51.840;8.276;2023-07-31T04:23:23;21.83;;;10.33;;
9948;SDS011;5013;51.840;8.276;2023-07-31T04:25:49;21.93;;;10.27;;
9948;SDS011;5013;51.840;8.276;2023-07-31T04:28:15;23.63;;;9.17;;
9948;SDS011;5013;51.840;8.276;2023-07-31T04:30:40;18.53;;;9.43;;
9948;SDS011;5013;51.840;8.276;2023-07-31T04:33:06;16.47;;;8.70;;
9948;SDS011;5013;51.840;8.276;2023-07-31T04:35:31;17.63;;;8.93;;
9948;SDS011;5013;51.840;8.276;2023-07-31T04:37:57;20.80;;;8.80;;
9948;SDS011;5013;51.840;8.276;2023-07-31T04:40:22;20.53;;;9.23;;
9948;SDS011;5013;51.840;8.276;2023-07-31T04:42:48;20.23;;;8.30;;
9948;SDS011;5013;51.840;8.276;2023-07-31T04:45:14;17.37;;;8.60;;
9948;SDS011;5013;51.840;8.276;2023-07-31T04:47:40;20.80;;;8.97;;
9948;SDS011;5013;51.840;8.276;2023-07-31T04:50:05;19.17;;;8.40;;
9948;SDS011;5013;51.840;8.276;2023-07-31T04:52:31;17.23;;;8.13;;
9948;SDS011;5013;51.840;8.276;2023-07-31T04:54:57;22.17;;;8.70;;
9948;SDS011;5013;51.840;8.276;2023-07-31T04:57:22;22.37;;;8.37;;
9948;SDS011;5013;51.840;8.276;2023-07-31T04:59:48;13.73;;;8.07;;
9948;SDS011;5013;51.840;8.276;2023-07-31T05:02:13;19.73;;;8.80;;
9948;SDS011;5013;51.840;8.276;2023-07-31T05:04:39;20.33;;;9.27;;
9948;SDS011;5013;51.840;8.276;2023-07-31T05:07:04;17.43;;;7.70;;
9948;SDS011;5013;51.840;8.276;2023-07-31T05:09:30;14.40;;;8.03;;
9948;SDS011;5013;51.840;8.276;2023-07-31T05:11:56;21.67;;;8.23;;
9948;SDS011;5013;51.840;8.276;2023-07-31T05:14:22;18.87;;;7.57;;
9948;SDS011;5013;51.840;8.276;2023-07-31T05:16:48;15.07;;;8.17;;
9948;SDS011;5013;51.840;8.276;2023-07-31T05:19:14;11.90;;;7.00;;
9948;SDS011;5013;51.840;8.276;2023-07-31T05:21:39;19.10;;;7.77;;
9948;SDS011;5013;51.840;8.276;2023-07-31T05:24:05;16.97;;;7.10;;
9948;SDS011;5013;51.840;8.276;2023-07-31T05:26:31;15.63;;;7.63;;
9948;SDS011;5013;51.840;8.276;2023-07-31T05:28:56;16.23;;;7.23;;
9948;SDS011;5013;51.840;8.276;2023-07-31T05:31:23;12.60;;;6.77;;
9948;SDS011;5013;51.840;8.276;2023-07-31T05:33:49;15.07;;;6.87;;
9948;SDS011;5013;51.840;8.276;2023-07-31T05:36:15;18.13;;;7.77;;
9948;SDS011;5013;51.840;8.276;2023-07-31T05:38:41;10.63;;;6.27;;
9948;SDS011;5013;51.840;8.276;2023-07-31T05:41:09;17.50;;;8.10;;
9948;SDS011;5013;51.840;8.276;2023-07-31T05:43:36;16.13;;;7.17;;
9948;SDS011;5013;51.840;8.276;2023-07-31T05:46:02;12.37;;;7.00;;
9948;SDS011;5013;51.840;8.276;2023-07-31T05:48:28;13.77;;;6.70;;
9948;SDS011;5013;51.840;8.276;2023-07-31T05:50:53;15.70;;;7.33;;
9948;SDS011;5013;51.840;8.276;2023-07-31T05:53:19;17.53;;;7.57;;
9948;SDS011;5013;51.840;8.276;2023-07-31T05:55:44;19.77;;;7.73;;
9948;SDS011;5013;51.840;8.276;2023-07-31T05:58:10;18.87;;;7.23;;
9948;SDS011;5013;51.840;8.276;2023-07-31T06:00:35;15.20;;;5.87;;
9948;SDS011;5013;51.840;8.276;2023-07-31T06:03:01;16.67;;;7.27;;
9948;SDS011;5013;51.840;8.276;2023-07-31T06:05:27;14.20;;;6.77;;
9948;SDS011;5013;51.840;8.276;2023-07-31T06:07:54;15.70;;;6.73;;
9948;SDS011;5013;51.840;8.276;2023-07-31T06:10:20;13.37;;;6.13;;
9948;SDS011;5013;51.840;8.276;2023-07-31T06:12:46;14.87;;;7.30;;
9948;SDS011;5013;51.840;8.276;2023-07-31T06:15:11;14.57;;;7.10;;
9948;SDS011;5013;51.840;8.276;2023-07-31T06:17:37;15.43;;;6.53;;
9948;SDS011;5013;51.840;8.276;2023-07-31T06:20:03;12.53;;;6.90;;
9948;SDS011;5013;51.840;8.276;2023-07-31T06:22:31;17.80;;;6.83;;
9948;SDS011;5013;51.840;8.276;2023-07-31T06:24:57;14.97;;;6.47;;
9948;SDS011;5013;51.840;8.276;2023-07-31T06:27:23;19.50;;;6.67;;
9948;SDS011;5013;51.840;8.276;2023-07-31T06:29:48;16.43;;;7.10;;
9948;SDS011;5013;51.840;8.276;2023-07-31T06:32:14;15.87;;;6.77;;
9948;SDS011;5013;51.840;8.276;2023-07-31T06:34:39;14.27;;;7.10;;
9948;SDS011;5013;51.840;8.276;2023-07-31T06:37:05;12.47;;;6.00;;
9948;SDS011;5013;51.840;8.276;2023-07-31T06:39:31;15.53;;;6.10;;
9948;SDS011;5013;51.840;8.276;2023-07-31T06:41:56;17.63;;;7.10;;
9948;SDS011;5013;51.840;8.276;2023-07-31T06:44:22;10.00;;;6.53;;
9948;SDS011;5013;51.840;8.276;2023-07-31T06:46:47;10.00;;;6.37;;
9948;SDS011;5013;51.840;8.276;2023-07-31T06:49:13;13.53;;;6.60;;
9948;SDS011;5013;51.840;8.276;2023-07-31T06:51:40;17.47;;;7.23;;
9948;SDS011;5013;51.840;8.276;2023-07-31T06:54:06;12.07;;;7.07;;
9948;SDS011;5013;51.840;8.276;2023-07-31T06:56:33;14.23;;;6.97;;
9948;SDS011;5013;51.840;8.276;2023-07-31T06:58:58;14.30;;;6.30;;
9948;SDS011;5013;51.840;8.276;2023-07-31T07:01:24;15.50;;;7.10;;
9948;SDS011;5013;51.840;8.276;2023-07-31T07:03:50;17.20;;;7.13;;
9948;SDS011;5013;51.840;8.276;2023-07-31T07:06:18;13.47;;;5.87;;
9948;SDS011;5013;51.840;8.276;2023-07-31T07:08:44;11.23;;;6.43;;
9948;SDS011;5013;51.840;8.276;2023-07-31T07:11:09;14.57;;;6.83;;
9948;SDS011;5013;51.840;8.276;2023-07-31T07:13:35;13.47;;;6.43;;
9948;SDS011;5013;51.840;8.276;2023-07-31T07:16:01;13.87;;;6.20;;
9948;SDS011;5013;51.840;8.276;2023-07-31T07:18:27;13.63;;;6.70;;
9948;SDS011;5013;51.840;8.276;2023-07-31T07:20:53;12.63;;;6.33;;
9948;SDS011;5013;51.840;8.276;2023-07-31T07:23:19;13.10;;;6.80;;
9948;SDS011;5013;51.840;8.276;2023-07-31T07:25:45;14.23;;;6.40;;
9948;SDS011;5013;51.840;8.276;2023-07-31T07:28:12;13.67;;;6.70;;
9948;SDS011;5013;51.840;8.276;2023-07-31T07:30:38;15.87;;;8.17;;
9948;SDS011;5013;51.840;8.276;2023-07-31T07:33:04;11.70;;;7.20;;
9948;SDS011;5013;51.840;8.276;2023-07-31T07:35:30;12.43;;;7.13;;
9948;SDS011;5013;51.840;8.276;2023-07-31T07:37:57;13.43;;;8.47;;
9948;SDS011;5013;51.840;8.276;2023-07-31T07:40:23;12.53;;;6.73;;
9948;SDS011;5013;51.840;8.276;2023-07-31T07:42:49;11.23;;;6.80;;
9948;SDS011;5013;51.840;8.276;2023-07-31T07:45:15;10.67;;;6.40;;
9948;SDS011;5013;51.840;8.276;2023-07-31T07:47:41;8.03;;;5.70;;
9948;SDS011;5013;51.840;8.276;2023-07-31T07:50:07;9.67;;;6.97;;
9948;SDS011;5013;51.840;8.276;2023-07-31T07:52:33;10.20;;;5.90;;
9948;SDS011;5013;51.840;8.276;2023-07-31T07:54:59;15.50;;;6.50;;
9948;SDS011;5013;51.840;8.276;2023-07-31T07:57:25;11.20;;;6.93;;
9948;SDS011;5013;51.840;8.276;2023-07-31T07:59:51;8.27;;;6.23;;
9948;SDS011;5013;51.840;8.276;2023-07-31T08:02:16;11.43;;;7.43;;
9948;SDS011;5013;51.840;8.276;2023-07-31T08:04:42;13.93;;;6.73;;
9948;SDS011;5013;51.840;8.276;2023-07-31T08:07:07;14.87;;;7.33;;
9948;SDS011;5013;51.840;8.276;2023-07-31T08:09:35;11.60;;;6.70;;
9948;SDS011;5013;51.840;8.276;2023-07-31T08:12:01;10.80;;;7.20;;
9948;SDS011;5013;51.840;8.276;2023-07-31T08:14:28;11.87;;;7.60;;
9948;SDS011;5013;51.840;8.276;2023-07-31T08:16:54;13.10;;;7.23;;
9948;SDS011;5013;51.840;8.276;2023-07-31T08:19:19;9.67;;;7.30;;
9948;SDS011;5013;51.840;8.276;2023-07-31T08:21:45;13.03;;;7.23;;
9948;SDS011;5013;51.840;8.276;2023-07-31T08:24:10;13.43;;;7.60;;
9948;SDS011;5013;51.840;8.276;2023-07-31T08:26:36;10.80;;;6.90;;
9948;SDS011;5013;51.840;8.276;2023-07-31T08:29:02;14.70;;;6.93;;
9948;SDS011;5013;51.840;8.276;2023-07-31T08:31:27;11.67;;;7.93;;
9948;SDS011;5013;51.840;8.276;2023-07-31T08:33:54;9.47;;;7.20;;
9948;SDS011;5013;51.840;8.276;2023-07-31T08:36:19;10.50;;;6.90;;
9948;SDS011;5013;51.840;8.276;2023-07-31T08:38:45;12.50;;;8.30;;
9948;SDS011;5013;51.840;8.276;2023-07-31T08:41:11;9.90;;;6.70;;
9948;SDS011;5013;51.840;8.276;2023-07-31T08:43:38;6.30;;;5.70;;
9948;SDS011;5013;51.840;8.276;2023-07-31T08:46:04;9.07;;;6.77;;
9948;SDS011;5013;51.840;8.276;2023-07-31T08:48:31;12.87;;;5.90;;
9948;SDS011;5013;51.840;8.276;2023-07-31T08:50:58;9.70;;;6.77;;
9948;SDS011;5013;51.840;8.276;2023-07-31T08:53:23;9.07;;;6.20;;
9948;SDS011;5013;51.840;8.276;2023-07-31T08:55:49;11.43;;;6.27;;
9948;SDS011;5013;51.840;8.276;2023-07-31T08:58:16;10.00;;;6.27;;
9948;SDS011;5013;51.840;8.276;2023-07-31T09:00:43;8.80;;;5.93;;
9948;SDS011;5013;51.840;8.276;2023-07-31T09:03:17;9.43;;;5.93;;
9948;SDS011;5013;51.840;8.276;2023-07-31T09:05:44;7.53;;;6.33;;
9948;SDS011;5013;51.840;8.276;2023-07-31T09:08:11;7.40;;;5.47;;
9948;SDS011;5013;51.840;8.276;2023-07-31T09:10:41;6.30;;;5.57;;
9948;SDS011;5013;51.840;8.276;2023-07-31T09:13:09;5.23;;;4.73;;
9948;SDS011;5013;51.840;8.276;2023-07-31T09:15:35;7.70;;;4.90;;
9948;SDS011;5013;51.840;8.276;2023-07-31T09:18:02;7.83;;;5.80;;
9948;SDS011;5013;51.840;8.276;2023-07-31T09:20:28;7.87;;;5.37;;
9948;SDS011;5013;51.840;8.276;2023-07-31T09:22:54;6.93;;;5.70;;
9948;SDS011;5013;51.840;8.276;2023-07-31T09:25:24;7.67;;;5.43;;
9948;SDS011;5013;51.840;8.276;2023-07-31T09:30:18;5.30;;;4.80;;
9948;SDS011;5013;51.840;8.276;2023-07-31T09:32:45;6.00;;;4.23;;
9948;SDS011;5013;51.840;8.276;2023-07-31T09:35:19;6.40;;;4.90;;
9948;SDS011;5013;51.840;8.276;2023-07-31T09:37:51;7.50;;;4.90;;
9948;SDS011;5013;51.840;8.276;2023-07-31T09:42:55;6.63;;;4.33;;
9948;SDS011;5013;51.840;8.276;2023-07-31T09:45:26;6.67;;;4.63;;
9948;SDS011;5013;51.840;8.276;2023-07-31T09:47:52;5.80;;;4.90;;
9948;SDS011;5013;51.840;8.276;2023-07-31T09:50:20;7.47;;;4.60;;
9948;SDS011;5013;51.840;8.276;2023-07-31T09:52:47;8.47;;;5.33;;
9948;SDS011;5013;51.840;8.276;2023-07-31T09:55:15;11.07;;;5.37;;
9948;SDS011;5013;51.840;8.276;2023-07-31T09:57:47;5.00;;;4.43;;
9948;SDS011;5013;51.840;8.276;2023-07-31T10:00:14;8.60;;;4.60;;
9948;SDS011;5013;51.840;8.276;2023-07-31T10:02:42;4.97;;;3.40;;
9948;SDS011;5013;51.840;8.276;2023-07-31T10:05:12;3.63;;;3.33;;
9948;SDS011;5013;51.840;8.276;2023-07-31T10:07:39;6.23;;;3.57;;
9948;SDS011;5013;51.840;8.276;2023-07-31T10:10:08;4.23;;;3.77;;
9948;SDS011;5013;51.840;8.276;2023-07-31T10:12:34;3.57;;;3.07;;
9948;SDS011;5013;51.840;8.276;2023-07-31T10:15:01;2.70;;;2.50;;
9948;SDS011;5013;51.840;8.276;2023-07-31T10:17:27;2.67;;;2.50;;
9948;SDS011;5013;51.840;8.276;2023-07-31T10:19:55;3.53;;;2.60;;
9948;SDS011;5013;51.840;8.276;2023-07-31T10:22:24;2.40;;;2.20;;
9948;SDS011;5013;51.840;8.276;2023-07-31T10:24:50;2.20;;;2.10;;
9948;SDS011;5013;51.840;8.276;2023-07-31T10:27:19;3.00;;;2.53;;
9948;SDS011;5013;51.840;8.276;2023-07-31T10:29:45;2.70;;;2.50;;
9948;SDS011;5013;51.840;8.276;2023-07-31T10:32:13;2.40;;;2.30;;
9948;SDS011;5013;51.840;8.276;2023-07-31T10:34:39;3.03;;;2.83;;
9948;SDS011;5013;51.840;8.276;2023-07-31T10:39:55;2.57;;;2.37;;
9948;SDS011;5013;51.840;8.276;2023-07-31T10:42:27;2.70;;;2.50;;
9948;SDS011;5013;51.840;8.276;2023-07-31T10:45:04;3.07;;;2.87;;
9948;SDS011;5013;51.840;8.276;2023-07-31T10:47:38;2.43;;;2.33;;
9948;SDS011;5013;51.840;8.276;2023-07-31T10:50:11;2.77;;;2.57;;
9948;SDS011;5013;51.840;8.276;2023-07-31T10:52:46;2.43;;;2.33;;
9948;SDS011;5013;51.840;8.276;2023-07-31T10:55:16;2.57;;;2.30;;
9948;SDS011;5013;51.840;8.276;2023-07-31T10:58:10;2.33;;;2.23;;
9948;SDS011;5013;51.840;8.276;2023-07-31T11:00:38;2.30;;;2.20;;
9948;SDS011;5013;51.840;8.276;2023-07-31T11:03:09;3.60;;;2.57;;
9948;SDS011;5013;51.840;8.276;2023-07-31T11:10:43;4.30;;;3.13;;
9948;SDS011;5013;51.840;8.276;2023-07-31T11:13:09;3.37;;;2.50;;
9948;SDS011;5013;51.840;8.276;2023-07-31T11:15:35;4.20;;;2.83;;
9948;SDS011;5013;51.840;8.276;2023-07-31T11:18:01;4.20;;;2.90;;
9948;SDS011;5013;51.840;8.276;2023-07-31T11:20:33;4.00;;;3.03;;
9948;SDS011;5013;51.840;8.276;2023-07-31T11:23:00;4.17;;;2.77;;
9948;SDS011;5013;51.840;8.276;2023-07-31T11:25:28;2.80;;;2.60;;
9948;SDS011;5013;51.840;8.276;2023-07-31T11:27:57;6.13;;;2.70;;
9948;SDS011;5013;51.840;8.276;2023-07-31T11:30:27;3.23;;;2.60;;
9948;SDS011;5013;51.840;8.276;2023-07-31T11:32:54;2.60;;;2.40;;
9948;SDS011;5013;51.840;8.276;2023-07-31T11:35:20;3.80;;;2.10;;
9948;SDS011;5013;51.840;8.276;2023-07-31T11:37:47;2.20;;;2.00;;
9948;SDS011;5013;51.840;8.276;2023-07-31T11:40:13;2.40;;;2.20;;
9948;SDS011;5013;51.840;8.276;2023-07-31T11:42:39;3.20;;;2.37;;
9948;SDS011;5013;51.840;8.276;2023-07-31T11:45:06;2.10;;;1.90;;
9948;SDS011;5013;51.840;8.276;2023-07-31T11:47:33;2.60;;;2.40;;
9948;SDS011;5013;51.840;8.276;2023-07-31T11:50:01;2.43;;;2.03;;
9948;SDS011;5013;51.840;8.276;2023-07-31T11:52:36;2.37;;;2.17;;
9948;SDS011;5013;51.840;8.276;2023-07-31T11:55:05;3.20;;;1.87;;
9948;SDS011;5013;51.840;8.276;2023-07-31T11:57:34;3.80;;;1.80;;
9948;SDS011;5013;51.840;8.276;2023-07-31T12:00:02;1.90;;;1.80;;
9948;SDS011;5013;51.840;8.276;2023-07-31T12:02:28;1.63;;;1.57;;
9948;SDS011;5013;51.840;8.276;2023-07-31T12:04:54;1.50;;;1.50;;
9948;SDS011;5013;51.840;8.276;2023-07-31T12:07:19;4.40;;;1.93;;
9948;SDS011;5013;51.840;8.276;2023-07-31T12:09:52;1.70;;;1.60;;
9948;SDS011;5013;51.840;8.276;2023-07-31T12:12:22;2.60;;;1.80;;
9948;SDS011;5013;51.840;8.276;2023-07-31T12:14:48;3.80;;;1.77;;
9948;SDS011;5013;51.840;8.276;2023-07-31T12:17:15;2.20;;;2.10;;
9948;SDS011;5013;51.840;8.276;2023-07-31T12:19:41;1.90;;;1.70;;
9948;SDS011;5013;51.840;8.276;2023-07-31T12:22:13;1.83;;;1.73;;
9948;SDS011;5013;51.840;8.276;2023-07-31T12:24:41;3.47;;;1.70;;
9948;SDS011;5013;51.840;8.276;2023-07-31T12:27:12;1.93;;;1.80;;
9948;SDS011;5013;51.840;8.276;2023-07-31T12:29:39;2.37;;;2.27;;
9948;SDS011;5013;51.840;8.276;2023-07-31T12:32:24;2.73;;;1.90;;
9948;SDS011;5013;51.840;8.276;2023-07-31T12:34:50;2.00;;;1.87;;
9948;SDS011;5013;51.840;8.276;2023-07-31T12:37:16;2.13;;;2.03;;
9948;SDS011;5013;51.840;8.276;2023-07-31T12:39:42;2.53;;;2.37;;
9948;SDS011;5013;51.840;8.276;2023-07-31T12:42:08;4.30;;;2.53;;
9948;SDS011;5013;51.840;8.276;2023-07-31T12:44:33;2.93;;;2.80;;
9948;SDS011;5013;51.840;8.276;2023-07-31T12:46:59;3.07;;;2.87;;
9948;SDS011;5013;51.840;8.276;2023-07-31T12:49:24;3.57;;;3.03;;
9948;SDS011;5013;51.840;8.276;2023-07-31T12:51:50;3.80;;;3.50;;
9948;SDS011;5013;51.840;8.276;2023-07-31T12:54:15;3.23;;;3.03;;
9948;SDS011;5013;51.840;8.276;2023-07-31T12:56:41;2.70;;;2.60;;
9948;SDS011;5013;51.840;8.276;2023-07-31T12:59:06;3.10;;;2.90;;
9948;SDS011;5013;51.840;8.276;2023-07-31T13:01:32;3.07;;;2.87;;
9948;SDS011;5013;51.840;8.276;2023-07-31T13:03:58;3.53;;;3.13;;
9948;SDS011;5013;51.840;8.276;2023-07-31T13:06:24;4.30;;;3.27;;
9948;SDS011;5013;51.840;8.276;2023-07-31T13:08:50;3.27;;;2.80;;
9948;SDS011;5013;51.840;8.276;2023-07-31T13:11:16;4.53;;;3.00;;
9948;SDS011;5013;51.840;8.276;2023-07-31T13:13:42;3.50;;;3.23;;
9948;SDS011;5013;51.840;8.276;2023-07-31T13:16:09;3.27;;;3.00;;
9948;SDS011;5013;51.840;8.276;2023-07-31T13:18:36;5.67;;;3.23;;
9948;SDS011;5013;51.840;8.276;2023-07-31T13:21:02;3.83;;;3.50;;
9948;SDS011;5013;51.840;8.276;2023-07-31T13:23:28;4.27;;;3.13;;
9948;SDS011;5013;51.840;8.276;2023-07-31T13:25:53;3.20;;;2.73;;
9948;SDS011;5013;51.840;8.276;2023-07-31T13:28:19;4.43;;;3.40;;
9948;SDS011;5013;51.840;8.276;2023-07-31T13:30:44;3.70;;;3.27;;
9948;SDS011;5013;51.840;8.276;2023-07-31T13:33:11;6.37;;;3.63;;
9948;SDS011;5013;51.840;8.276;2023-07-31T13:35:36;3.97;;;3.60;;
9948;SDS011;5013;51.840;8.276;2023-07-31T13:38:02;4.37;;;3.53;;
9948;SDS011;5013;51.840;8.276;2023-07-31T13:40:27;4.10;;;3.10;;
9948;SDS011;5013;51.840;8.276;2023-07-31T13:42:53;4.00;;;3.43;;
9948;SDS011;5013;51.840;8.276;2023-07-31T13:45:19;3.53;;;3.03;;
9948;SDS011;5013;51.840;8.276;2023-07-31T13:47:45;3.50;;;3.20;;
9948;SDS011;5013;51.840;8.276;2023-07-31T13:50:10;3.33;;;3.03;;
9948;SDS011;5013;51.840;8.276;2023-07-31T13:52:36;4.30;;;3.07;;
9948;SDS011;5013;51.840;8.276;2023-07-31T13:55:01;3.60;;;2.97;;
9948;SDS011;5013;51.840;8.276;2023-07-31T13:57:27;3.30;;;3.00;;
9948;SDS011;5013;51.840;8.276;2023-07-31T13:59:53;2.90;;;2.77;;
9948;SDS011;5013;51.840;8.276;2023-07-31T14:02:18;2.80;;;2.60;;
9948;SDS011;5013;51.840;8.276;2023-07-31T14:04:44;2.57;;;2.47;;
9948;SDS011;5013;51.840;8.276;2023-07-31T14:07:10;4.00;;;2.77;;
9948;SDS011;5013;51.840;8.276;2023-07-31T14:09:36;2.87;;;2.77;;
9948;SDS011;5013;51.840;8.276;2023-07-31T14:12:01;3.60;;;3.10;;
9948;SDS011;5013;51.840;8.276;2023-07-31T14:14:27;4.60;;;2.60;;
9948;SDS011;5013;51.840;8.276;2023-07-31T14:16:52;3.93;;;2.70;;
9948;SDS011;5013;51.840;8.276;2023-07-31T14:19:18;2.93;;;2.73;;
9948;SDS011;5013;51.840;8.276;2023-07-31T14:21:44;2.73;;;2.53;;
9948;SDS011;5013;51.840;8.276;2023-07-31T14:24:09;2.33;;;2.23;;
9948;SDS011;5013;51.840;8.276;2023-07-31T14:26:35;3.00;;;2.47;;
9948;SDS011;5013;51.840;8.276;2023-07-31T14:29:00;2.87;;;2.30;;
9948;SDS011;5013;51.840;8.276;2023-07-31T14:31:26;2.70;;;2.40;;
9948;SDS011;5013;51.840;8.276;2023-07-31T14:33:51;2.43;;;2.23;;
9948;SDS011;5013;51.840;8.276;2023-07-31T14:36:17;2.57;;;2.37;;
9948;SDS011;5013;51.840;8.276;2023-07-31T14:38:43;2.63;;;2.40;;
9948;SDS011;5013;51.840;8.276;2023-07-31T14:41:08;2.77;;;2.57;;
9948;SDS011;5013;51.840;8.276;2023-07-31T14:43:34;2.07;;;1.97;;
9948;SDS011;5013;51.840;8.276;2023-07-31T14:45:59;2.73;;;2.53;;
9948;SDS011;5013;51.840;8.276;2023-07-31T14:48:26;5.27;;;2.10;;
9948;SDS011;5013;51.840;8.276;2023-07-31T14:50:52;2.30;;;2.13;;
9948;SDS011;5013;51.840;8.276;2023-07-31T14:53:18;2.33;;;2.13;;
9948;SDS011;5013;51.840;8.276;2023-07-31T14:55:43;2.93;;;2.20;;
9948;SDS011;5013;51.840;8.276;2023-07-31T14:58:09;2.30;;;2.10;;
9948;SDS011;5013;51.840;8.276;2023-07-31T15:00:36;3.13;;;2.20;;
9948;SDS011;5013;51.840;8.276;2023-07-31T15:03:01;2.00;;;1.90;;
9948;SDS011;5013;51.840;8.276;2023-07-31T15:05:27;2.77;;;2.03;;
9948;SDS011;5013;51.840;8.276;2023-07-31T15:07:53;2.37;;;2.27;;
9948;SDS011;5013;51.840;8.276;2023-07-31T15:10:18;2.20;;;2.10;;
9948;SDS011;5013;51.840;8.276;2023-07-31T15:12:44;2.37;;;2.27;;
9948;SDS011;5013;51.840;8.276;2023-07-31T15:15:09;2.57;;;2.37;;
9948;SDS011;5013;51.840;8.276;2023-07-31T15:17:35;2.63;;;2.33;;
9948;SDS011;5013;51.840;8.276;2023-07-31T15:20:01;3.20;;;2.90;;